Time;durP1;ratioP1;P1;durP2;ratioP2;P2;SDS_P1;SDS_P2;PMS_P1;PMS_P2;Temp;Humidity;BMP_temperature;BMP_pressure;BME280_temperature;BME280_humidity;BME280_pressure;Samples;Min_cycle;Max_cycle;Signal;HPM_P1;HPM_P2
2022/01/29 00:01:39;;;;;;;68.78;25.27;;;;;;;1.75;61.88;94453.46;1608531;87;21021;-52
2022/01/29 00:04:06;;;;;;;25.27;14.38;;;;;;;1.82;61.77;94450.69;1612845;87;21548;-50
2022/01/29 00:06:33;;;;;;;29.35;15.65;;;;;;;1.81;61.51;94452.61;1601160;88;20994;-52
2022/01/29 00:09:00;;;;;;;22.73;12.35;;;;;;;1.79;61.66;94453.60;1623393;88;21106;-50
2022/01/29 00:11:28;;;;;;;16.30;10.13;;;;;;;1.85;61.64;94452.03;1615949;86;21138;-49
2022/01/29 00:13:55;;;;;;;12.40;9.78;;;;;;;1.92;61.51;94455.28;1618712;88;21451;-51
2022/01/29 00:16:22;;;;;;;11.28;8.85;;;;;;;1.96;61.26;94454.05;1628541;88;21034;-49
2022/01/29 00:18:48;;;;;;;17.00;12.30;;;;;;;1.97;60.89;94456.20;1599261;89;21047;-49
2022/01/29 00:21:17;;;;;;;18.60;13.55;;;;;;;1.92;60.90;94457.39;1632692;87;20983;-49
2022/01/29 00:23:43;;;;;;;14.30;11.25;;;;;;;1.89;60.81;94460.12;1607854;88;21819;-50
2022/01/29 00:26:11;;;;;;;22.22;13.35;;;;;;;1.85;60.77;94462.09;1608021;88;21129;-51
2022/01/29 00:28:38;;;;;;;227.90;129.70;;;;;;;1.72;60.66;94462.97;1608417;88;21594;-50
2022/01/29 00:31:04;;;;;;;21.37;15.20;;;;;;;1.58;61.10;94468.47;1587278;88;21047;-49
2022/01/29 00:33:31;;;;;;;58.23;29.35;;;;;;;1.53;61.31;94466.94;1608227;88;21046;-52
2022/01/29 00:35:58;;;;;;;137.15;55.33;;;;;;;1.52;61.40;94470.06;1608454;88;21313;-51
2022/01/29 00:38:24;;;;;;;22.02;12.98;;;;;;;1.47;61.59;94469.89;1628461;88;21009;-52
2022/01/29 00:40:51;;;;;;;10.60;7.80;;;;;;;1.43;61.83;94470.50;1628534;88;21038;-51
2022/01/29 00:43:17;;;;;;;13.13;9.83;;;;;;;1.38;61.68;94476.34;1587056;86;21079;-51
2022/01/29 00:45:44;;;;;;;14.65;9.68;;;;;;;1.27;61.89;94475.61;1592447;87;21045;-49
2022/01/29 00:48:11;;;;;;;14.58;9.68;;;;;;;1.23;62.40;94470.02;1623917;87;21176;-50
2022/01/29 00:50:38;;;;;;;18.85;11.12;;;;;;;1.32;62.30;94472.48;1628380;87;21004;-48
2022/01/29 00:53:04;;;;;;;24.77;13.50;;;;;;;1.35;62.32;94482.52;1612826;87;21059;-50
2022/01/29 00:55:30;;;;;;;34.65;18.55;;;;;;;1.45;62.49;94479.00;1624934;87;21054;-52
2022/01/29 00:57:57;;;;;;;52.50;24.27;;;;;;;1.56;62.14;94474.87;1612275;87;21093;-48
2022/01/29 01:00:23;;;;;;;115.22;49.93;;;;;;;1.62;62.21;94480.84;1622145;87;21237;-51
2022/01/29 01:02:51;;;;;;;111.57;49.95;;;;;;;1.62;62.09;94475.98;1632880;86;21042;-49
2022/01/29 01:05:17;;;;;;;43.78;23.15;;;;;;;1.59;62.48;94484.92;1595988;87;21141;-50
2022/01/29 01:07:44;;;;;;;51.15;24.60;;;;;;;1.66;62.57;94487.01;1628028;87;21184;-51
2022/01/29 01:10:11;;;;;;;32.58;14.58;;;;;;;1.77;62.42;94491.80;1610154;88;21554;-51
2022/01/29 01:12:38;;;;;;;29.18;13.53;;;;;;;1.79;62.50;94491.56;1628152;87;21140;-50
2022/01/29 01:15:06;;;;;;;75.78;29.32;;;;;;;1.77;62.55;94503.39;1609981;86;21303;-51
2022/01/29 01:17:33;;;;;;;69.47;33.23;;;;;;;1.70;62.43;94497.23;1646333;86;21569;-50
2022/01/29 01:20:00;;;;;;;64.45;30.60;;;;;;;1.61;62.72;94505.05;1614394;86;21100;-49
2022/01/29 01:22:27;;;;;;;62.27;29.27;;;;;;;1.64;62.68;94503.47;1643483;86;21064;-49
2022/01/29 01:24:53;;;;;;;65.55;31.25;;;;;;;1.60;62.54;94507.58;1636167;86;21080;-54
2022/01/29 01:27:20;;;;;;;46.28;26.30;;;;;;;1.55;62.71;94508.00;1618548;87;21093;-52
2022/01/29 01:29:47;;;;;;;35.40;19.77;;;;;;;1.61;62.60;94514.54;1633569;86;21041;-52
2022/01/29 01:32:14;;;;;;;30.35;16.67;;;;;;;1.67;62.50;94521.08;1635062;86;21497;-52
2022/01/29 01:34:47;;;;;;;24.82;15.03;;;;;;;1.70;62.08;94505.37;1628914;87;21045;-50
2022/01/29 01:37:17;;;;;;;21.52;13.65;;;;;;;1.62;62.04;94522.86;1638761;86;21176;-51
2022/01/29 01:39:41;;;;;;;10.25;9.10;;;;;;;1.47;62.04;94518.67;1620000;87;21507;-50
2022/01/29 01:42:08;;;;;;;14.78;9.90;;;;;;;1.36;62.56;94517.94;1620183;87;21624;-48
2022/01/29 01:44:43;;;;;;;18.48;10.95;;;;;;;1.33;62.54;94517.38;1624742;87;21045;-51
2022/01/29 01:47:10;;;;;;;25.57;15.23;;;;;;;1.23;62.88;94522.84;1627827;87;20966;-52
2022/01/29 01:49:36;;;;;;;45.28;26.90;;;;;;;1.15;63.19;94528.86;1566960;89;21147;-50
2022/01/29 01:52:06;;;;;;;19.12;13.32;;;;;;;1.18;63.49;94528.67;1553681;92;21573;-51
2022/01/29 01:54:33;;;;;;;27.35;16.20;;;;;;;1.26;63.61;94528.82;1553838;92;21021;-49
2022/01/29 01:57:02;;;;;;;34.15;15.78;;;;;;;1.41;63.43;94537.88;1553745;92;21049;-50
2022/01/29 01:59:29;;;;;;;27.62;14.20;;;;;;;1.44;63.21;94535.73;1535870;91;21536;-49
2022/01/29 02:01:56;;;;;;;28.65;15.60;;;;;;;1.48;63.37;94535.72;1602677;87;21129;-49
2022/01/29 02:04:23;;;;;;;32.75;16.70;;;;;;;1.54;62.92;94538.95;1567075;90;21546;-51
2022/01/29 02:06:53;;;;;;;30.37;16.75;;;;;;;1.58;62.90;94536.23;1600235;87;21035;-52
2022/01/29 02:09:23;;;;;;;19.77;12.25;;;;;;;1.61;62.84;94543.00;1590502;88;21122;-50
2022/01/29 02:11:52;;;;;;;12.45;9.23;;;;;;;1.72;62.64;94549.13;1574947;88;21290;-50
2022/01/29 02:14:20;;;;;;;15.10;10.40;;;;;;;1.82;61.80;94555.09;1577632;89;21145;-51
2022/01/29 02:16:47;;;;;;;20.05;13.32;;;;;;;1.83;61.41;94553.92;1560320;90;21212;-51
2022/01/29 02:19:15;;;;;;;18.52;13.35;;;;;;;1.89;61.23;94561.81;1566313;90;21501;-55
2022/01/29 02:21:43;;;;;;;22.55;12.70;;;;;;;1.91;60.90;94561.62;1599762;88;21011;-51
2022/01/29 02:24:10;;;;;;;20.50;10.85;;;;;;;1.91;61.12;94567.05;1614795;87;21504;-49
2022/01/29 02:26:36;;;;;;;22.27;11.68;;;;;;;1.98;61.11;94563.52;1597029;89;21123;-49
2022/01/29 02:29:03;;;;;;;20.08;11.00;;;;;;;2.06;61.03;94559.58;1593469;89;20988;-49
2022/01/29 02:31:30;;;;;;;24.85;13.95;;;;;;;2.13;61.00;94564.98;1593531;89;21015;-52
2022/01/29 02:33:57;;;;;;;27.17;15.23;;;;;;;2.19;61.10;94568.80;1593691;90;21010;-52
2022/01/29 02:36:23;;;;;;;26.15;17.15;;;;;;;2.16;61.29;94574.44;1577232;89;20977;-52
2022/01/29 02:38:50;;;;;;;30.43;17.82;;;;;;;2.11;61.68;94574.11;1603929;89;21180;-49
2022/01/29 02:41:17;;;;;;;26.93;16.73;;;;;;;2.09;61.90;94570.42;1590771;88;21049;-52
2022/01/29 02:43:47;;;;;;;23.50;15.23;;;;;;;2.03;62.11;94573.95;1593453;89;21086;-53
2022/01/29 02:46:22;;;;;;;;;;;;;;;;;;;;;
2022/01/29 02:48:47;;;;;;;23.20;15.08;;;;;;;2.13;62.38;94585.33;1631461;86;20998;-49
2022/01/29 02:51:14;;;;;;;23.10;14.43;;;;;;;2.15;62.65;94596.55;1635880;87;21187;-54
2022/01/29 02:53:40;;;;;;;24.37;14.70;;;;;;;2.06;62.51;94590.78;1633493;86;21519;-49
2022/01/29 02:56:08;;;;;;;27.80;16.73;;;;;;;1.98;62.78;94586.58;1636885;86;21180;-53
2022/01/29 02:58:36;;;;;;;31.60;17.23;;;;;;;1.93;63.04;94599.20;1639281;85;21472;-52
2022/01/29 03:01:04;;;;;;;31.27;17.80;;;;;;;1.92;63.11;94609.87;1636745;85;21030;-51
2022/01/29 03:03:31;;;;;;;27.82;15.20;;;;;;;1.91;63.20;94618.58;1575017;89;21807;-50
2022/01/29 03:05:57;;;;;;;28.92;16.93;;;;;;;1.86;63.59;94630.41;1607325;87;21092;-50
2022/01/29 03:08:24;;;;;;;24.87;15.78;;;;;;;1.78;63.87;94626.95;1635587;86;21172;-54
2022/01/29 03:10:51;;;;;;;17.07;10.75;;;;;;;1.65;64.38;94622.97;1604750;87;21594;-51
2022/01/29 03:13:18;;;;;;;22.60;14.13;;;;;;;1.48;64.79;94625.16;1618353;87;21133;-50
2022/01/29 03:15:45;;;;;;;13.50;9.93;;;;;;;1.33;65.28;94629.82;1644238;86;21823;-52
2022/01/29 03:18:11;;;;;;;13.22;10.30;;;;;;;1.21;65.97;94622.13;1635751;85;20971;-50
2022/01/29 03:20:38;;;;;;;13.38;10.20;;;;;;;1.19;66.14;94627.17;1605013;88;21075;-50
2022/01/29 03:23:05;;;;;;;15.83;11.30;;;;;;;1.21;66.53;94623.48;1596545;88;21013;-50
2022/01/29 03:25:32;;;;;;;19.77;12.30;;;;;;;1.29;66.54;94633.13;1628695;87;21109;-50
2022/01/29 03:27:58;;;;;;;21.02;11.70;;;;;;;1.33;66.44;94633.88;1628393;88;21154;-52
2022/01/29 03:30:25;;;;;;;11.22;7.72;;;;;;;1.32;66.75;94626.16;1628478;88;21023;-52
2022/01/29 03:32:51;;;;;;;7.97;6.72;;;;;;;1.47;66.89;94631.73;1628579;88;21573;-50
2022/01/29 03:35:19;;;;;;;11.83;8.90;;;;;;;1.57;66.55;94638.48;1628460;88;21109;-50
2022/01/29 03:37:45;;;;;;;24.25;15.18;;;;;;;1.65;66.22;94638.63;1628333;88;21098;-49
2022/01/29 03:40:12;;;;;;;32.67;19.77;;;;;;;1.66;66.24;94644.25;1628713;88;21821;-49
2022/01/29 03:42:47;;;;;;;45.73;24.65;;;;;;;1.73;66.30;94646.92;1608213;88;21490;-50
2022/01/29 03:45:13;;;;;;;51.65;28.75;;;;;;;1.88;66.03;94655.19;1609189;88;21082;-49
2022/01/29 03:47:39;;;;;;;51.33;27.55;;;;;;;1.93;65.64;94656.16;1628598;88;21049;-50
2022/01/29 03:50:09;;;;;;;39.70;23.10;;;;;;;1.97;65.55;94671.83;1628502;88;21003;-51
2022/01/29 03:52:36;;;;;;;33.40;19.12;;;;;;;1.96;65.27;94667.58;1628773;88;21156;-49
2022/01/29 03:55:05;;;;;;;26.70;15.90;;;;;;;1.90;65.49;94667.77;1628470;88;21023;-52
2022/01/29 03:57:32;;;;;;;32.35;16.77;;;;;;;1.86;65.68;94676.52;1632405;86;21631;-49
2022/01/29 03:59:58;;;;;;;33.90;17.82;;;;;;;1.76;66.03;94669.20;1614822;87;21094;-49
2022/01/29 04:02:25;;;;;;;25.80;15.68;;;;;;;1.79;66.32;94677.91;1630972;86;21030;-51
2022/01/29 04:04:53;;;;;;;23.22;14.13;;;;;;;1.81;65.96;94679.04;1616047;87;21195;-50
2022/01/29 04:07:19;;;;;;;24.85;13.95;;;;;;;1.62;66.26;94673.87;1634000;87;20983;-49
2022/01/29 04:09:49;;;;;;;20.00;13.30;;;;;;;1.47;67.18;94689.41;1633041;87;21051;-50
2022/01/29 04:12:15;;;;;;;23.95;13.30;;;;;;;1.53;67.52;94697.33;1630180;87;21038;-51
2022/01/29 04:14:41;;;;;;;20.60;13.08;;;;;;;1.51;66.96;94683.39;1611241;88;21117;-50
2022/01/29 04:17:10;;;;;;;22.62;15.48;;;;;;;1.37;67.11;94684.80;1614952;87;21215;-50
2022/01/29 04:19:37;;;;;;;24.35;14.60;;;;;;;1.28;67.56;94685.77;1628907;87;21642;-52
2022/01/29 04:22:05;;;;;;;27.70;15.68;;;;;;;1.24;67.75;94682.30;1590896;89;21165;-50
2022/01/29 04:24:33;;;;;;;12.78;8.35;;;;;;;1.22;67.88;94686.55;1592231;89;21181;-57
2022/01/29 04:27:01;;;;;;;21.00;13.35;;;;;;;1.20;65.49;94686.17;1604191;88;21548;-50
2022/01/29 04:29:37;;;;;;;12.80;8.85;;;;;;;1.13;65.66;94678.06;1617619;87;21272;-49
2022/01/29 04:32:08;;;;;;;16.23;10.72;;;;;;;1.02;65.61;94686.20;1628497;86;21513;-51
2022/01/29 04:34:28;;;;;;;15.43;9.37;;;;;;;1.06;64.27;94684.25;1602122;87;21631;-52
2022/01/29 04:36:55;;;;;;;12.20;8.63;;;;;;;1.13;64.03;94678.06;1602627;87;21041;-52
2022/01/29 04:39:21;;;;;;;14.30;9.65;;;;;;;1.25;63.78;94682.48;1604378;88;21587;-53
2022/01/29 04:41:48;;;;;;;22.17;12.13;;;;;;;1.29;63.35;94685.20;1585286;87;22236;-53
2022/01/29 04:44:14;;;;;;;18.32;11.57;;;;;;;1.29;63.34;94679.19;1607398;86;21093;-52
2022/01/29 04:46:41;;;;;;;10.10;7.50;;;;;;;1.26;63.06;94675.91;1630130;86;21095;-51
2022/01/29 04:49:07;;;;;;;10.28;7.75;;;;;;;1.20;62.62;94684.25;1583628;89;21450;-49
2022/01/29 04:51:34;;;;;;;9.70;7.30;;;;;;;1.05;62.34;94685.41;1631029;86;21238;-54
2022/01/29 04:54:01;;;;;;;9.38;7.83;;;;;;;0.88;62.42;94684.84;1600771;87;21541;-50
2022/01/29 04:56:27;;;;;;;6.50;5.80;;;;;;;0.75;62.50;94682.31;1631484;87;20984;-51
2022/01/29 04:58:54;;;;;;;8.88;7.97;;;;;;;0.69;62.68;94683.08;1603639;87;21180;-51
2022/01/29 05:01:20;;;;;;;9.90;8.68;;;;;;;0.67;62.60;94675.92;1615022;88;21141;-53
2022/01/29 05:03:47;;;;;;;6.65;5.67;;;;;;;0.73;62.71;94677.08;1593614;88;21582;-51
2022/01/29 05:06:13;;;;;;;16.60;10.15;;;;;;;0.81;62.35;94687.53;1571879;89;21134;-52
2022/01/29 05:08:41;;;;;;;8.65;7.72;;;;;;;0.92;61.70;94686.20;1609968;88;21022;-52
2022/01/29 05:11:09;;;;;;;23.15;15.63;;;;;;;1.08;61.42;94695.47;1607052;88;21169;-51
2022/01/29 05:13:38;;;;;;;13.98;10.20;;;;;;;1.19;61.15;94701.66;1606458;88;21141;-50
2022/01/29 05:16:32;;;;;;;9.38;6.95;;;;;;;1.18;61.25;94706.10;1595076;89;21055;-51
2022/01/29 05:26:59;;;;;;;7.28;6.58;;;;;;;1.12;61.64;94720.61;1617225;87;21049;-50
2022/01/29 05:29:26;;;;;;;9.53;8.03;;;;;;;1.23;61.67;94723.31;1629803;86;21090;-51
2022/01/29 05:31:53;;;;;;;9.10;7.55;;;;;;;1.34;61.46;94715.96;1608275;86;21273;-52
2022/01/29 05:34:20;;;;;;;8.20;7.12;;;;;;;1.39;60.92;94718.27;1639880;85;21024;-53
2022/01/29 05:36:47;;;;;;;12.35;9.98;;;;;;;1.42;60.74;94727.76;1608960;86;21618;-51
2022/01/29 05:39:13;;;;;;;8.33;7.55;;;;;;;1.42;59.74;94732.39;1611897;87;21060;-51
2022/01/29 05:41:40;;;;;;;9.53;7.10;;;;;;;1.28;60.00;94737.84;1645477;86;21100;-49
2022/01/29 05:44:07;;;;;;;13.32;9.55;;;;;;;1.24;60.10;94743.25;1633367;87;21439;-49
2022/01/29 05:46:34;;;;;;;11.18;6.97;;;;;;;1.20;60.53;94747.91;1637455;86;21619;-49
2022/01/29 05:49:02;;;;;;;11.95;8.95;;;;;;;1.23;60.62;94759.32;1645647;86;21072;-49
2022/01/29 05:51:30;;;;;;;9.65;7.22;;;;;;;1.22;60.53;94756.98;1641867;86;21590;-51
2022/01/29 05:53:58;;;;;;;6.55;5.95;;;;;;;1.17;60.51;94758.14;1628396;87;20989;-49
2022/01/29 05:56:25;;;;;;;15.98;10.18;;;;;;;1.10;60.71;94764.16;1650636;85;21218;-51
2022/01/29 05:58:52;;;;;;;28.92;17.80;;;;;;;1.10;60.71;94760.86;1628116;85;21119;-49
2022/01/29 06:01:21;;;;;;;26.30;17.27;;;;;;;1.02;60.86;94772.86;1627012;86;21068;-52
2022/01/29 06:03:47;;;;;;;23.25;15.68;;;;;;;1.03;60.97;94780.39;1628639;85;21517;-53
2022/01/29 06:06:14;;;;;;;63.15;43.85;;;;;;;1.08;61.09;94774.58;1632995;86;21928;-53
2022/01/29 06:08:41;;;;;;;40.35;25.02;;;;;;;1.09;60.84;94782.33;1600829;87;21195;-49
2022/01/29 06:11:08;;;;;;;47.58;25.72;;;;;;;0.94;61.03;94772.64;1648508;85;21467;-51
2022/01/29 06:13:35;;;;;;;65.85;37.98;;;;;;;0.85;61.28;94774.97;1626889;86;20997;-50
2022/01/29 06:16:02;;;;;;;55.03;32.17;;;;;;;0.74;61.55;94783.63;1609648;87;21508;-52
2022/01/29 06:18:29;;;;;;;74.50;40.12;;;;;;;0.68;61.83;94781.12;1584187;89;21018;-49
2022/01/29 06:20:58;;;;;;;71.47;39.08;;;;;;;0.67;62.00;94786.34;1590634;88;21157;-50
2022/01/29 06:23:30;;;;;;;69.77;39.73;;;;;;;0.73;62.03;94786.15;1592090;88;21125;-51
2022/01/29 06:25:53;;;;;;;78.67;46.13;;;;;;;0.82;61.98;94795.25;1589492;89;21050;-49
2022/01/29 06:28:19;;;;;;;43.65;25.52;;;;;;;0.93;61.95;94802.23;1589246;88;21541;-51
2022/01/29 06:30:46;;;;;;;46.68;29.40;;;;;;;1.06;61.58;94792.59;1589855;87;20999;-51
2022/01/29 06:33:13;;;;;;;78.10;47.95;;;;;;;1.07;61.44;94799.55;1593063;88;21857;-52
2022/01/29 06:35:43;;;;;;;49.83;30.95;;;;;;;1.06;61.35;94798.01;1585507;89;21089;-51
2022/01/29 06:38:12;;;;;;;57.58;33.65;;;;;;;1.00;61.44;94798.17;1580683;88;21485;-53
2022/01/29 06:40:39;;;;;;;205.10;98.52;;;;;;;1.00;61.76;94798.77;1577780;88;21091;-49
2022/01/29 06:43:06;;;;;;;96.05;50.35;;;;;;;1.12;61.67;94797.05;1637412;86;21087;-51
2022/01/29 06:45:34;;;;;;;67.87;39.55;;;;;;;1.17;61.50;94796.06;1642167;84;21149;-49
2022/01/29 06:48:00;;;;;;;88.15;50.70;;;;;;;1.19;61.65;94805.17;1600161;88;21048;-51
2022/01/29 06:50:28;;;;;;;80.35;47.05;;;;;;;1.27;61.46;94791.25;1642642;84;21102;-49
2022/01/29 06:52:54;;;;;;;41.60;26.48;;;;;;;1.33;61.09;94799.77;1602528;87;21017;-50
2022/01/29 06:55:21;;;;;;;38.95;24.95;;;;;;;1.23;61.25;94800.52;1602082;87;21039;-49
2022/01/29 06:57:48;;;;;;;31.75;20.30;;;;;;;1.10;61.83;94804.20;1589383;87;21214;-49
2022/01/29 07:00:16;;;;;;;37.58;23.83;;;;;;;1.14;61.81;94807.67;1668746;84;21025;-50
2022/01/29 07:02:43;;;;;;;61.42;36.38;;;;;;;1.13;61.47;94802.06;1672632;85;21478;-50
2022/01/29 07:05:11;;;;;;;102.25;58.80;;;;;;;1.02;61.30;94797.23;1670968;85;21119;-49
2022/01/29 07:07:38;;;;;;;67.42;36.58;;;;;;;0.93;61.10;94796.82;1666353;85;21580;-49
2022/01/29 07:10:06;;;;;;;105.63;61.08;;;;;;;0.81;60.52;94796.42;1632144;86;21182;-50
2022/01/29 07:12:33;;;;;;;72.08;45.48;;;;;;;0.73;59.99;94797.55;1630675;86;21084;-49
2022/01/29 07:15:01;;;;;;;40.50;28.90;;;;;;;0.76;59.50;94797.56;1632765;87;21039;-49
2022/01/29 07:17:28;;;;;;;21.73;15.43;;;;;;;0.83;58.63;94794.09;1620913;87;21050;-50
2022/01/29 07:19:55;;;;;;;25.77;17.25;;;;;;;0.92;56.69;94806.11;1636348;86;21463;-50
2022/01/29 07:22:22;;;;;;;16.93;11.83;;;;;;;0.83;55.82;94803.01;1638312;86;21077;-52
2022/01/29 07:24:48;;;;;;;9.30;7.67;;;;;;;0.77;54.38;94803.16;1635828;85;21162;-50
2022/01/29 07:27:15;;;;;;;12.43;8.83;;;;;;;0.63;51.89;94812.59;1595856;87;21110;-49
2022/01/29 07:29:42;;;;;;;7.42;6.62;;;;;;;0.63;52.67;94813.95;1645544;84;21133;-52
2022/01/29 07:32:10;;;;;;;42.58;19.82;;;;;;;0.75;51.42;94805.48;1591087;90;21108;-51
2022/01/29 07:34:37;;;;;;;67.75;31.05;;;;;;;0.89;50.89;94810.94;1591074;90;21189;-48
2022/01/29 07:37:04;;;;;;;14.30;9.08;;;;;;;1.08;51.04;94813.29;1591567;90;21000;-48
2022/01/29 07:39:32;;;;;;;25.27;14.23;;;;;;;1.15;49.18;94814.64;1591300;89;21155;-48
2022/01/29 07:41:58;;;;;;;26.12;13.45;;;;;;;1.18;49.75;94817.93;1587529;89;21507;-50
2022/01/29 07:44:25;;;;;;;8.85;7.60;;;;;;;1.28;49.59;94821.24;1598366;89;20996;-50
2022/01/29 07:46:52;;;;;;;11.43;8.20;;;;;;;1.36;48.89;94822.78;1601749;89;21141;-49
2022/01/29 07:49:19;;;;;;;7.67;6.87;;;;;;;1.49;49.29;94825.91;1599174;89;21095;-51
2022/01/29 07:51:45;;;;;;;17.98;10.10;;;;;;;1.63;48.20;94836.16;1579618;89;21148;-49
2022/01/29 07:54:12;;;;;;;6.00;5.40;;;;;;;1.66;48.51;94835.98;1576552;88;21099;-50
2022/01/29 07:56:39;;;;;;;11.70;6.92;;;;;;;1.73;46.45;94837.51;1632049;85;21541;-49
2022/01/29 07:59:06;;;;;;;8.05;6.17;;;;;;;1.71;46.59;94833.63;1616578;86;21095;-50
2022/01/29 08:01:32;;;;;;;6.12;5.53;;;;;;;1.72;46.81;94827.63;1636210;85;21254;-48
2022/01/29 08:03:59;;;;;;;9.30;7.70;;;;;;;1.81;46.76;94824.13;1633410;85;21056;-49
2022/01/29 08:06:29;;;;;;;10.68;8.08;;;;;;;1.92;46.74;94824.13;1637525;85;21083;-50
2022/01/29 08:08:54;;;;;;;8.78;6.03;;;;;;;2.00;45.77;94822.95;1603424;86;21045;-49
2022/01/29 08:11:21;;;;;;;12.58;7.42;;;;;;;2.03;45.20;94825.66;1626906;86;21774;-49
2022/01/29 08:13:48;;;;;;;9.23;6.25;;;;;;;2.04;45.02;94827.77;1601715;87;21418;-49
2022/01/29 08:16:15;;;;;;;14.68;8.15;;;;;;;2.00;45.45;94821.59;1642121;85;20991;-48
2022/01/29 08:18:43;;;;;;;19.90;9.70;;;;;;;2.02;45.57;94828.19;1638119;85;21078;-50
2022/01/29 08:21:16;;;;;;;9.05;7.37;;;;;;;2.04;45.80;94830.48;1638091;86;21086;-50
2022/01/29 08:23:42;;;;;;;11.85;9.10;;;;;;;2.07;45.35;94831.84;1604310;88;21217;-50
2022/01/29 08:26:09;;;;;;;20.40;10.95;;;;;;;2.03;45.34;94825.66;1632930;86;21674;-49
2022/01/29 08:28:38;;;;;;;14.85;12.10;;;;;;;2.09;45.53;94817.87;1641532;86;21022;-48
2022/01/29 08:31:05;;;;;;;14.03;10.18;;;;;;;2.14;44.25;94827.75;1638289;85;21086;-49
2022/01/29 08:33:32;;;;;;;15.75;9.63;;;;;;;2.26;44.93;94822.48;1627854;86;21586;-51
2022/01/29 08:35:59;;;;;;;10.93;7.92;;;;;;;2.35;44.64;94823.62;1622016;85;21105;-49
2022/01/29 08:38:26;;;;;;;13.15;8.75;;;;;;;2.44;43.54;94824.56;1636867;86;20987;-49
2022/01/29 08:40:54;;;;;;;10.25;8.13;;;;;;;2.55;43.23;94822.59;1601835;87;21075;-49
2022/01/29 08:43:23;;;;;;;27.17;21.77;;;;;;;2.69;43.72;94823.30;1602264;88;21131;-51
2022/01/29 08:45:51;;;;;;;20.02;18.05;;;;;;;2.65;41.95;94821.78;1599965;88;21032;-50
2022/01/29 08:48:18;;;;;;;11.63;9.75;;;;;;;2.59;41.83;94816.55;1598620;88;21725;-50
2022/01/29 08:50:44;;;;;;;10.93;8.23;;;;;;;2.73;42.78;94815.14;1593486;89;20997;-51
2022/01/29 08:53:11;;;;;;;10.68;7.20;;;;;;;2.88;42.38;94813.91;1599446;88;21623;-50
2022/01/29 08:55:38;;;;;;;12.75;8.90;;;;;;;3.00;42.01;94810.71;1589374;89;21133;-51
2022/01/29 08:58:08;;;;;;;7.72;6.92;;;;;;;3.21;41.25;94814.08;1612221;87;21077;-49
2022/01/29 09:00:37;;;;;;;9.40;7.53;;;;;;;3.40;40.97;94804.65;1624361;86;21135;-50
2022/01/29 09:03:04;;;;;;;14.63;8.70;;;;;;;3.40;40.25;94823.08;1615006;87;21125;-49
2022/01/29 09:05:32;;;;;;;17.17;10.58;;;;;;;3.37;40.43;94814.94;1593819;88;33566;-49
2022/01/29 09:07:59;;;;;;;21.87;12.75;;;;;;;3.45;41.57;94820.53;1621730;86;21064;-51
2022/01/29 09:10:27;;;;;;;14.03;9.23;;;;;;;3.65;40.35;94823.69;1608366;87;20991;-50
2022/01/29 09:12:54;;;;;;;13.05;9.33;;;;;;;3.82;40.12;94818.08;1590209;90;21203;-48
2022/01/29 09:15:21;;;;;;;13.78;8.95;;;;;;;3.84;39.61;94810.28;1623141;87;21020;-51
2022/01/29 09:17:48;;;;;;;9.75;6.97;;;;;;;3.80;39.49;94823.16;1603195;87;21038;-50
2022/01/29 09:20:15;;;;;;;9.20;7.87;;;;;;;3.93;39.83;94826.94;1611031;87;21013;-49
2022/01/29 09:22:42;;;;;;;18.07;16.02;;;;;;;4.12;38.81;94822.86;1610003;88;21023;-53
2022/01/29 09:25:09;;;;;;;8.95;7.97;;;;;;;4.34;38.59;94820.88;1612211;87;21161;-51
2022/01/29 09:27:35;;;;;;;8.38;6.17;;;;;;;4.78;37.81;94808.48;1628628;87;21060;-50
2022/01/29 09:30:05;;;;;;;11.40;9.18;;;;;;;5.10;37.29;94818.39;1614240;87;21123;-52
2022/01/29 09:32:32;;;;;;;5.95;5.35;;;;;;;5.06;37.26;94812.22;1615308;88;20991;-51
2022/01/29 09:34:59;;;;;;;7.03;5.55;;;;;;;5.04;36.83;94810.50;1578311;89;21077;-52
2022/01/29 09:37:25;;;;;;;9.05;6.50;;;;;;;5.01;37.13;94818.72;1622617;86;21904;-51
2022/01/29 09:39:53;;;;;;;9.40;6.08;;;;;;;5.07;36.75;94819.22;1610708;88;21027;-50
2022/01/29 09:42:20;;;;;;;7.62;5.67;;;;;;;5.16;36.55;94808.56;1603778;88;21045;-50
2022/01/29 09:44:48;;;;;;;8.28;6.10;;;;;;;5.27;36.51;94811.92;1594036;88;21181;-51
2022/01/29 09:47:18;;;;;;;7.15;6.40;;;;;;;5.37;36.88;94823.25;1630153;87;21010;-52
2022/01/29 09:49:45;;;;;;;5.72;4.72;;;;;;;5.49;36.37;94817.23;1616630;86;21196;-50
2022/01/29 09:52:11;;;;;;;5.58;4.30;;;;;;;5.60;36.08;94812.41;1622837;87;21561;-51
2022/01/29 09:54:38;;;;;;;4.78;3.85;;;;;;;5.83;35.50;94806.98;1628318;87;21006;-51
2022/01/29 09:57:05;;;;;;;4.78;3.77;;;;;;;5.78;35.10;94811.53;1621069;87;21122;-49
2022/01/29 09:59:32;;;;;;;3.90;3.50;;;;;;;5.40;35.33;94810.94;1662998;84;21512;-50
2022/01/29 10:01:59;;;;;;;6.92;4.78;;;;;;;5.08;35.79;94805.77;1671527;84;21188;-53
2022/01/29 10:04:27;;;;;;;6.83;5.40;;;;;;;4.89;36.20;94812.44;1668385;85;20963;-50
2022/01/29 10:07:14;;;;;;;20.48;12.40;;;;;;;4.92;37.03;94812.98;1648823;84;21002;-50
2022/01/29 10:09:41;;;;;;;8.30;5.25;;;;;;;5.16;36.27;94796.30;1666509;85;21566;-52
2022/01/29 10:12:28;;;;;;;4.40;3.98;;;;;;;5.45;35.94;94793.34;1669147;85;21062;-52
2022/01/29 10:14:58;;;;;;;7.53;3.92;;;;;;;5.57;34.93;94796.26;1635177;86;21512;-53
2022/01/29 10:17:53;;;;;;;3.83;3.50;;;;;;;5.89;34.45;94794.40;1665945;85;21027;-52
2022/01/29 10:20:26;;;;;;;5.75;3.37;;;;;;;6.12;33.92;94795.77;1622244;86;21115;-51
2022/01/29 10:22:58;;;;;;;3.95;3.55;;;;;;;6.50;32.91;94785.47;1594196;88;21055;-51
2022/01/29 10:25:32;;;;;;;6.70;3.60;;;;;;;6.80;32.90;94774.92;1600301;87;21487;-49
2022/01/29 10:28:16;;;;;;;9.50;6.83;;;;;;;6.83;31.95;94790.48;1589777;87;21834;-51
2022/01/29 10:30:56;;;;;;;12.43;9.03;;;;;;;6.58;32.11;94776.55;1581060;87;21123;-51
2022/01/29 10:33:30;;;;;;;8.05;5.70;;;;;;;6.40;31.93;94789.20;1601218;88;21449;-50
2022/01/29 10:36:06;;;;;;;5.33;4.50;;;;;;;6.26;32.91;94778.53;1601288;88;21645;-53
2022/01/29 10:38:50;;;;;;;12.10;8.08;;;;;;;6.02;32.93;94783.06;1592188;88;21000;-50
2022/01/29 10:41:24;;;;;;;10.35;7.12;;;;;;;6.17;32.54;94772.83;1560956;91;21208;-50
2022/01/29 10:44:17;;;;;;;4.75;4.17;;;;;;;6.62;32.93;94778.61;1563500;91;21052;-52
2022/01/29 10:46:52;;;;;;;3.60;3.30;;;;;;;7.08;31.20;94781.17;1563609;91;21020;-51
2022/01/29 10:49:23;;;;;;;3.90;3.52;;;;;;;7.29;30.98;94774.62;1569972;89;21064;-49
2022/01/29 10:51:58;;;;;;;3.60;3.22;;;;;;;7.14;30.82;94767.33;1576759;89;21137;-51
2022/01/29 10:54:24;;;;;;;3.37;3.08;;;;;;;7.37;30.61;94786.96;1629636;86;21901;-50
2022/01/29 10:56:58;;;;;;;6.78;4.80;;;;;;;7.46;30.27;94778.92;1623337;86;21066;-51
2022/01/29 10:59:26;;;;;;;4.25;3.85;;;;;;;7.50;30.84;94769.44;1634858;85;20977;-50
2022/01/29 11:01:57;;;;;;;7.30;3.80;;;;;;;7.56;30.24;94766.36;1623295;87;21045;-50
2022/01/29 11:04:26;;;;;;;3.77;3.17;;;;;;;7.80;30.80;94766.38;1624234;86;21049;-52
2022/01/29 11:06:54;;;;;;;3.47;3.17;;;;;;;8.47;29.37;94761.93;1605403;88;21168;-52
2022/01/29 11:09:22;;;;;;;5.28;4.15;;;;;;;8.94;28.94;94750.00;1612344;87;20985;-50
2022/01/29 11:11:50;;;;;;;7.28;6.58;;;;;;;9.11;28.31;94750.09;1651993;86;21090;-52
2022/01/29 11:14:19;;;;;;;3.33;3.02;;;;;;;8.94;29.04;94745.88;1627499;86;21120;-51
2022/01/29 11:16:46;;;;;;;7.03;5.60;;;;;;;8.71;28.89;94744.80;1570635;87;21541;-52
2022/01/29 11:19:16;;;;;;;12.90;9.03;;;;;;;8.37;29.36;94741.05;1622266;87;21830;-53
2022/01/29 11:21:45;;;;;;;2.60;2.40;;;;;;;8.27;29.45;94736.02;1624199;86;21547;-51
2022/01/29 11:24:12;;;;;;;2.58;2.37;;;;;;;8.41;28.89;94742.49;1616009;88;21138;-53
2022/01/29 11:26:40;;;;;;;7.83;4.83;;;;;;;8.28;29.64;94733.44;1610296;89;21101;-52
2022/01/29 11:29:29;;;;;;;5.15;3.75;;;;;;;8.15;29.98;94736.72;1641576;86;20981;-53
2022/01/29 11:32:32;;;;;;;4.12;2.90;;;;;;;8.48;30.11;94734.09;1646964;85;21335;-51
2022/01/29 11:35:17;;;;;;;2.40;2.20;;;;;;;9.07;29.15;94726.86;1640102;85;21147;-51
2022/01/29 11:38:06;;;;;;;2.95;2.58;;;;;;;9.20;28.08;94730.98;1621800;86;21057;-50
2022/01/29 11:40:39;;;;;;;2.52;2.33;;;;;;;9.06;28.08;94723.95;1633007;86;21003;-52
2022/01/29 11:43:22;;;;;;;3.07;2.27;;;;;;;9.15;27.36;94732.31;1646186;86;21484;-55
2022/01/29 11:46:04;;;;;;;1.70;1.60;;;;;;;9.30;27.34;94735.39;1628489;87;21185;-51